Terminal Aerodrome Forecast
Issued by NWS Wilmington, NC

Current Version | Previous Version | Text Only | Print | Product List | Glossary On
Versions: 1 2 3 4 5 6 7 8 9 10 11 12 13 14 15 16 17 18 19
000
FTUS42 KILM 031520 AAA
TAFLBT
TAF AMD
KLBT 031520Z 0315/0412 21010KT P6SM VCSH BKN006
      TEMPO 0315/0318 4SM SHRA BR SCT006 BKN012
     FM031800 21010KT 6SM -SHRA VCTS SCT015 SCT040CB BKN070
     FM040200 24007KT P6SM SCT050 BKN150=

USA.gov is the U.S. government's official web portal to all federal, state and local government web resources and services.